Nissho Maru — JD2650 — position and weather

sailwx.info

Track history (hours):
 
Tides and Currents Weather Stations Pressure Air Temp Water Temp Dewpoint Dewpoint Depression Visibility Wind Speed Wind Dir Waves Ship Positions

Nissho Maru

Last reported at 2017-Jun-20 08:45 UTC. Time now 2017-Jun-24 15:40 UTC.
Position N 34°35' E 134°53'.

Length 75 m; draft 4 m.

Type: Cargo ship. MMSI: 431000572.

Date/timePositionNaut miles runAvg speedWind from/ knotsBaromVisibWave heightAir tempDewpointWater temp
2017-Jun-20 08:45N 34°35' E 134°53'313.6
2017-Jun-20 08:30N 34°37' E 134°57'713.0
2017-Jun-20 08:00N 34°36' E 135°04'510.5
2017-Jun-20 07:31N 34°36' E 135°11'611.1
2017-Jun-20 07:00N 34°37' E 135°17'4 7.3
2017-Jun-20 06:30N 34°41' E 135°17'0 0.1
2017-Jun-20 06:00N 34°41' E 135°17'0 0.0
2017-Jun-20 05:30N 34°41' E 135°17'0 0.0
2017-Jun-20 05:00N 34°41' E 135°17'0 0.0
2017-Jun-20 04:27N 34°41' E 135°17'0 0.0
2017-Jun-20 03:57N 34°41' E 135°17'0 0.0
2017-Jun-20 03:27N 34°41' E 135°17'0 0.0
2017-Jun-20 02:39N 34°41' E 135°17'0 0.0
2017-Jun-20 02:27N 34°41' E 135°17'0 0.0
2017-Jun-20 01:51N 34°41' E 135°17'0 0.0
2017-Jun-20 01:21N 34°41' E 135°17'0 0.0
2017-Jun-20 00:45N 34°41' E 135°17'0 0.0
2017-Jun-20 00:27N 34°41' E 135°17'0 0.0
2017-Jun-19 23:57N 34°41' E 135°17'0 0.0
2017-Jun-19 23:15N 34°41' E 135°17'0 0.0
2017-Jun-19 22:57N 34°41' E 135°17'0 0.1
2017-Jun-19 22:27N 34°41' E 135°17'2 4.4
2017-Jun-19 22:00N 34°41' E 135°19'0 0.1
2017-Jun-19 21:23N 34°41' E 135°19'0 0.0
2017-Jun-19 20:53N 34°41' E 135°19'0 0.0
2017-Jun-19 20:23N 34°41' E 135°19'0 0.0
2017-Jun-19 19:59N 34°41' E 135°19'0 0.0
2017-Jun-19 19:29N 34°41' E 135°19'0 0.0
2017-Jun-19 18:47N 34°41' E 135°19'0 0.0
2017-Jun-19 18:29N 34°41' E 135°19'0 0.0
2017-Jun-19 17:59N 34°41' E 135°19'0 0.1
2017-Jun-19 17:29N 34°41' E 135°19'0 0.0
2017-Jun-19 16:59N 34°41' E 135°19'0 0.0
2017-Jun-19 16:29N 34°41' E 135°19'0 0.0
2017-Jun-19 15:59N 34°41' E 135°19'0 0.0
2017-Jun-19 15:29N 34°41' E 135°19'0 0.0
2017-Jun-19 14:53N 34°41' E 135°19'0 0.0
2017-Jun-19 14:29N 34°41' E 135°19'0 0.0
2017-Jun-19 13:29N 34°41' E 135°19'0 0.0
2017-Jun-19 12:47N 34°41' E 135°19'0 0.0
2017-Jun-19 12:29N 34°41' E 135°19'0 0.0
2017-Jun-19 11:59N 34°41' E 135°19'0 0.0
2017-Jun-19 11:29N 34°41' E 135°19'0 0.0
2017-Jun-19 10:59N 34°41' E 135°19'0 0.0
2017-Jun-19 10:23N 34°41' E 135°19'0 0.0
2017-Jun-19 09:59N 34°41' E 135°19'0 0.0
2017-Jun-19 09:29N 34°41' E 135°19'0 0.0
2017-Jun-19 08:29N 34°41' E 135°19'0 0.0
2017-Jun-19 07:59N 34°41' E 135°19'0 0.0
2017-Jun-19 07:29N 34°41' E 135°19'0 0.0
2017-Jun-19 06:59N 34°41' E 135°19'0 0.0
2017-Jun-19 06:29N 34°41' E 135°19'0 0.0
2017-Jun-19 05:59N 34°41' E 135°19'0 0.2
2017-Jun-19 05:30N 34°41' E 135°19'3 5.5
2017-Jun-19 05:00N 34°42' E 135°16'0 0.2
2017-Jun-19 04:29N 34°42' E 135°16'0 0.0
2017-Jun-19 03:59N 34°42' E 135°16'0 0.0
2017-Jun-19 03:29N 34°42' E 135°16'0 0.0
2017-Jun-19 02:59N 34°42' E 135°16'0 0.0
2017-Jun-19 02:29N 34°42' E 135°16'0 0.0
2017-Jun-19 01:53N 34°42' E 135°16'0 0.0
2017-Jun-19 01:29N 34°42' E 135°16'0 0.0
2017-Jun-19 00:59N 34°42' E 135°16'0 0.0
2017-Jun-19 00:23N 34°42' E 135°16'0 0.0
2017-Jun-18 23:53N 34°42' E 135°16'0 0.0
2017-Jun-18 23:29N 34°42' E 135°16'0 0.0
2017-Jun-18 23:00N 34°42' E 135°16'2 3.0
2017-Jun-18 22:30N 34°41' E 135°15'4 7.7
2017-Jun-18 22:00N 34°39' E 135°19'0 0.1
2017-Jun-18 21:26N 34°39' E 135°19'0 0.1
2017-Jun-18 20:56N 34°39' E 135°19'0 0.0
2017-Jun-18 20:26N 34°39' E 135°19'0 0.0
2017-Jun-18 19:56N 34°39' E 135°19'0 0.0
2017-Jun-18 19:20N 34°39' E 135°19'0 0.0
2017-Jun-18 18:44N 34°39' E 135°19'0 0.0
2017-Jun-18 18:26N 34°39' E 135°19'0 0.0
2017-Jun-18 17:56N 34°39' E 135°19'0 0.0
2017-Jun-18 17:26N 34°39' E 135°19'0 0.0
2017-Jun-18 16:50N 34°39' E 135°19'0 0.0
2017-Jun-18 16:26N 34°39' E 135°19'0 0.0
2017-Jun-18 15:56N 34°39' E 135°19'0 0.0
2017-Jun-18 15:26N 34°39' E 135°19'0 0.0
2017-Jun-18 14:50N 34°39' E 135°19'0 0.0
2017-Jun-18 13:50N 34°39' E 135°19'0 0.0
2017-Jun-18 13:26N 34°39' E 135°19'0 0.0
2017-Jun-18 12:56N 34°39' E 135°19'0 0.0
2017-Jun-18 12:26N 34°39' E 135°19'0 0.0
2017-Jun-18 11:44N 34°39' E 135°19'0 0.0
2017-Jun-18 11:14N 34°39' E 135°19'0 0.0
2017-Jun-18 10:56N 34°39' E 135°19'0 0.0
2017-Jun-18 10:26N 34°39' E 135°19'0 0.0
2017-Jun-18 09:56N 34°39' E 135°19'0 0.0
2017-Jun-18 09:26N 34°39' E 135°19'0 0.1
2017-Jun-18 08:50N 34°39' E 135°19'1 4.5
2017-Jun-18 08:30N 34°37' E 135°19'611.6
2017-Jun-18 08:00N 34°33' E 135°15'611.7
2017-Jun-18 07:29N 34°29' E 135°09'1711.4
2017-Jun-18 05:58N 34°13' E 134°59'510.8
2017-Jun-18 05:29N 34°08' E 134°60'  
2017-Jun-11 15:38N 35°05' E 140°21'2911.0
2017-Jun-11 12:58N 34°52' E 139°48'714.0
2017-Jun-11 12:30N 34°58' E 139°44'612.2
2017-Jun-11 12:00N 35°04' E 139°44'611.3
2017-Jun-11 11:30N 35°09' E 139°46'612.0
2017-Jun-11 11:00N 35°15' E 139°46'611.7
2017-Jun-11 10:30N 35°20' E 139°42'510.1
2017-Jun-11 10:00N 35°24' E 139°39'1 1.5
2017-Jun-11 09:24N 35°24' E 139°37'0 0.0
2017-Jun-11 08:54N 35°24' E 139°37'0 0.0
2017-Jun-11 08:27N 35°24' E 139°37'0 0.0
2017-Jun-11 06:33N 35°24' E 139°37'0 0.0
2017-Jun-11 06:21N 35°24' E 139°37'0 0.0
2017-Jun-11 05:09N 35°24' E 139°37'0 0.0
2017-Jun-11 04:51N 35°24' E 139°37'0 0.0
2017-Jun-11 04:27N 35°24' E 139°37'0 0.0
2017-Jun-11 03:08N 35°24' E 139°37'0 0.9
2017-Jun-11 02:58N 35°24' E 139°38'2 4.4
2017-Jun-11 02:30N 35°24' E 139°40'1 2.4
2017-Jun-11 02:00N 35°23' E 139°41'0 0.0
2017-Jun-11 01:27N 35°23' E 139°41'0 1.1
2017-Jun-11 01:00N 35°23' E 139°41'5 9.7
2017-Jun-11 00:30N 35°28' E 139°40'1 2.1
2017-Jun-10 23:59N 35°29' E 139°39'0 0.0
2017-Jun-10 23:29N 35°29' E 139°39'0 0.0
2017-Jun-10 22:59N 35°29' E 139°39'0 0.0
2017-Jun-10 22:29N 35°29' E 139°39'0 0.0
2017-Jun-10 21:59N 35°29' E 139°39'0 0.0
2017-Jun-10 21:29N 35°29' E 139°39'0 0.0
2017-Jun-10 20:59N 35°29' E 139°39'0 0.0
2017-Jun-10 20:29N 35°29' E 139°39'0 0.0
2017-Jun-10 19:59N 35°29' E 139°39'0 0.0
2017-Jun-10 19:29N 35°29' E 139°39'0 0.0
2017-Jun-10 18:59N 35°29' E 139°39'0 0.0
2017-Jun-10 18:29N 35°29' E 139°39'0 0.0
2017-Jun-10 17:59N 35°29' E 139°39'0 0.0
2017-Jun-10 17:29N 35°29' E 139°39'0 0.0
2017-Jun-10 16:59N 35°29' E 139°39'0 0.0
2017-Jun-10 16:29N 35°29' E 139°39'0 0.0
2017-Jun-10 15:59N 35°29' E 139°39'0 0.0
2017-Jun-10 15:29N 35°29' E 139°39'0 0.0
2017-Jun-10 14:59N 35°29' E 139°39'0 0.0
2017-Jun-10 13:59N 35°29' E 139°39'0 0.0
2017-Jun-10 13:29N 35°29' E 139°39'0 0.0
2017-Jun-10 12:59N 35°29' E 139°39'0 0.0
2017-Jun-10 12:29N 35°29' E 139°39'0 0.0
2017-Jun-10 11:59N 35°29' E 139°39'0 0.0
2017-Jun-10 11:29N 35°29' E 139°39'0 0.0
2017-Jun-10 10:59N 35°29' E 139°39'0 0.0
2017-Jun-10 10:29N 35°29' E 139°39'0 0.0
2017-Jun-10 09:59N 35°29' E 139°39'0 0.0
2017-Jun-10 09:29N 35°29' E 139°39'0 0.0
2017-Jun-10 08:59N 35°29' E 139°39'  
Track history (hours):
 
Tides and Currents Weather Stations Pressure Air Temp Water Temp Dewpoint Dewpoint Depression Visibility Wind Speed Wind Dir Waves Ship Positions

Nissho Maru

Last reported at 2017-Jun-20 08:45 UTC. Time now 2017-Jun-24 15:40 UTC.
Position N 34°35' E 134°53'.

Length 75 m; draft 4 m.

Type: Cargo ship. MMSI: 431000572.

Date/timePositionNaut miles runAvg speedWind from/ knotsBaromVisibWave heightAir tempDewpointWater temp
2017-Jun-20 08:45N 34°35' E 134°53'313.6
2017-Jun-20 08:30N 34°37' E 134°57'713.0
2017-Jun-20 08:00N 34°36' E 135°04'510.5
2017-Jun-20 07:31N 34°36' E 135°11'611.1
2017-Jun-20 07:00N 34°37' E 135°17'4 7.3
2017-Jun-20 06:30N 34°41' E 135°17'0 0.1
2017-Jun-20 06:00N 34°41' E 135°17'0 0.0
2017-Jun-20 05:30N 34°41' E 135°17'0 0.0
2017-Jun-20 05:00N 34°41' E 135°17'0 0.0
2017-Jun-20 04:27N 34°41' E 135°17'0 0.0
2017-Jun-20 03:57N 34°41' E 135°17'0 0.0
2017-Jun-20 03:27N 34°41' E 135°17'0 0.0
2017-Jun-20 02:39N 34°41' E 135°17'0 0.0
2017-Jun-20 02:27N 34°41' E 135°17'0 0.0
2017-Jun-20 01:51N 34°41' E 135°17'0 0.0
2017-Jun-20 01:21N 34°41' E 135°17'0 0.0
2017-Jun-20 00:45N 34°41' E 135°17'0 0.0
2017-Jun-20 00:27N 34°41' E 135°17'0 0.0
2017-Jun-19 23:57N 34°41' E 135°17'0 0.0
2017-Jun-19 23:15N 34°41' E 135°17'0 0.0
2017-Jun-19 22:57N 34°41' E 135°17'0 0.1
2017-Jun-19 22:27N 34°41' E 135°17'2 4.4
2017-Jun-19 22:00N 34°41' E 135°19'0 0.1
2017-Jun-19 21:23N 34°41' E 135°19'0 0.0
2017-Jun-19 20:53N 34°41' E 135°19'0 0.0
2017-Jun-19 20:23N 34°41' E 135°19'0 0.0
2017-Jun-19 19:59N 34°41' E 135°19'0 0.0
2017-Jun-19 19:29N 34°41' E 135°19'0 0.0
2017-Jun-19 18:47N 34°41' E 135°19'0 0.0
2017-Jun-19 18:29N 34°41' E 135°19'0 0.0
2017-Jun-19 17:59N 34°41' E 135°19'0 0.1
2017-Jun-19 17:29N 34°41' E 135°19'0 0.0
2017-Jun-19 16:59N 34°41' E 135°19'0 0.0
2017-Jun-19 16:29N 34°41' E 135°19'0 0.0
2017-Jun-19 15:59N 34°41' E 135°19'0 0.0
2017-Jun-19 15:29N 34°41' E 135°19'0 0.0
2017-Jun-19 14:53N 34°41' E 135°19'0 0.0
2017-Jun-19 14:29N 34°41' E 135°19'0 0.0
2017-Jun-19 13:29N 34°41' E 135°19'0 0.0
2017-Jun-19 12:47N 34°41' E 135°19'0 0.0
2017-Jun-19 12:29N 34°41' E 135°19'0 0.0
2017-Jun-19 11:59N 34°41' E 135°19'0 0.0
2017-Jun-19 11:29N 34°41' E 135°19'0 0.0
2017-Jun-19 10:59N 34°41' E 135°19'0 0.0
2017-Jun-19 10:23N 34°41' E 135°19'0 0.0
2017-Jun-19 09:59N 34°41' E 135°19'0 0.0
2017-Jun-19 09:29N 34°41' E 135°19'0 0.0
2017-Jun-19 08:29N 34°41' E 135°19'0 0.0
2017-Jun-19 07:59N 34°41' E 135°19'0 0.0
2017-Jun-19 07:29N 34°41' E 135°19'0 0.0
2017-Jun-19 06:59N 34°41' E 135°19'0 0.0
2017-Jun-19 06:29N 34°41' E 135°19'0 0.0
2017-Jun-19 05:59N 34°41' E 135°19'0 0.2
2017-Jun-19 05:30N 34°41' E 135°19'3 5.5
2017-Jun-19 05:00N 34°42' E 135°16'0 0.2
2017-Jun-19 04:29N 34°42' E 135°16'0 0.0
2017-Jun-19 03:59N 34°42' E 135°16'0 0.0
2017-Jun-19 03:29N 34°42' E 135°16'0 0.0
2017-Jun-19 02:59N 34°42' E 135°16'0 0.0
2017-Jun-19 02:29N 34°42' E 135°16'0 0.0
2017-Jun-19 01:53N 34°42' E 135°16'0 0.0
2017-Jun-19 01:29N 34°42' E 135°16'0 0.0
2017-Jun-19 00:59N 34°42' E 135°16'0 0.0
2017-Jun-19 00:23N 34°42' E 135°16'0 0.0
2017-Jun-18 23:53N 34°42' E 135°16'0 0.0
2017-Jun-18 23:29N 34°42' E 135°16'0 0.0
2017-Jun-18 23:00N 34°42' E 135°16'2 3.0
2017-Jun-18 22:30N 34°41' E 135°15'4 7.7
2017-Jun-18 22:00N 34°39' E 135°19'0 0.1
2017-Jun-18 21:26N 34°39' E 135°19'0 0.1
2017-Jun-18 20:56N 34°39' E 135°19'0 0.0
2017-Jun-18 20:26N 34°39' E 135°19'0 0.0
2017-Jun-18 19:56N 34°39' E 135°19'0 0.0
2017-Jun-18 19:20N 34°39' E 135°19'0 0.0
2017-Jun-18 18:44N 34°39' E 135°19'0 0.0
2017-Jun-18 18:26N 34°39' E 135°19'0 0.0
2017-Jun-18 17:56N 34°39' E 135°19'0 0.0
2017-Jun-18 17:26N 34°39' E 135°19'0 0.0
2017-Jun-18 16:50N 34°39' E 135°19'0 0.0
2017-Jun-18 16:26N 34°39' E 135°19'0 0.0
2017-Jun-18 15:56N 34°39' E 135°19'0 0.0
2017-Jun-18 15:26N 34°39' E 135°19'0 0.0
2017-Jun-18 14:50N 34°39' E 135°19'0 0.0
2017-Jun-18 13:50N 34°39' E 135°19'0 0.0
2017-Jun-18 13:26N 34°39' E 135°19'0 0.0
2017-Jun-18 12:56N 34°39' E 135°19'0 0.0
2017-Jun-18 12:26N 34°39' E 135°19'0 0.0
2017-Jun-18 11:44N 34°39' E 135°19'0 0.0
2017-Jun-18 11:14N 34°39' E 135°19'0 0.0
2017-Jun-18 10:56N 34°39' E 135°19'0 0.0
2017-Jun-18 10:26N 34°39' E 135°19'0 0.0
2017-Jun-18 09:56N 34°39' E 135°19'0 0.0
2017-Jun-18 09:26N 34°39' E 135°19'0 0.1
2017-Jun-18 08:50N 34°39' E 135°19'1 4.5
2017-Jun-18 08:30N 34°37' E 135°19'611.6
2017-Jun-18 08:00N 34°33' E 135°15'611.7
2017-Jun-18 07:29N 34°29' E 135°09'1711.4
2017-Jun-18 05:58N 34°13' E 134°59'510.8
2017-Jun-18 05:29N 34°08' E 134°60'  
2017-Jun-11 15:38N 35°05' E 140°21'2911.0
2017-Jun-11 12:58N 34°52' E 139°48'714.0
2017-Jun-11 12:30N 34°58' E 139°44'612.2
2017-Jun-11 12:00N 35°04' E 139°44'611.3
2017-Jun-11 11:30N 35°09' E 139°46'612.0
2017-Jun-11 11:00N 35°15' E 139°46'611.7
2017-Jun-11 10:30N 35°20' E 139°42'510.1
2017-Jun-11 10:00N 35°24' E 139°39'1 1.5
2017-Jun-11 09:24N 35°24' E 139°37'0 0.0
2017-Jun-11 08:54N 35°24' E 139°37'0 0.0
2017-Jun-11 08:27N 35°24' E 139°37'0 0.0
2017-Jun-11 06:33N 35°24' E 139°37'0 0.0
2017-Jun-11 06:21N 35°24' E 139°37'0 0.0
2017-Jun-11 05:09N 35°24' E 139°37'0 0.0
2017-Jun-11 04:51N 35°24' E 139°37'0 0.0
2017-Jun-11 04:27N 35°24' E 139°37'0 0.0
2017-Jun-11 03:08N 35°24' E 139°37'0 0.9
2017-Jun-11 02:58N 35°24' E 139°38'2 4.4
2017-Jun-11 02:30N 35°24' E 139°40'1 2.4
2017-Jun-11 02:00N 35°23' E 139°41'0 0.0
2017-Jun-11 01:27N 35°23' E 139°41'0 1.1
2017-Jun-11 01:00N 35°23' E 139°41'5 9.7
2017-Jun-11 00:30N 35°28' E 139°40'1 2.1
2017-Jun-10 23:59N 35°29' E 139°39'0 0.0
2017-Jun-10 23:29N 35°29' E 139°39'0 0.0
2017-Jun-10 22:59N 35°29' E 139°39'0 0.0
2017-Jun-10 22:29N 35°29' E 139°39'0 0.0
2017-Jun-10 21:59N 35°29' E 139°39'0 0.0
2017-Jun-10 21:29N 35°29' E 139°39'0 0.0
2017-Jun-10 20:59N 35°29' E 139°39'0 0.0
2017-Jun-10 20:29N 35°29' E 139°39'0 0.0
2017-Jun-10 19:59N 35°29' E 139°39'0 0.0
2017-Jun-10 19:29N 35°29' E 139°39'0 0.0
2017-Jun-10 18:59N 35°29' E 139°39'0 0.0
2017-Jun-10 18:29N 35°29' E 139°39'0 0.0
2017-Jun-10 17:59N 35°29' E 139°39'0 0.0
2017-Jun-10 17:29N 35°29' E 139°39'0 0.0
2017-Jun-10 16:59N 35°29' E 139°39'0 0.0
2017-Jun-10 16:29N 35°29' E 139°39'0 0.0
2017-Jun-10 15:59N 35°29' E 139°39'0 0.0
2017-Jun-10 15:29N 35°29' E 139°39'0 0.0
2017-Jun-10 14:59N 35°29' E 139°39'0 0.0
2017-Jun-10 13:59N 35°29' E 139°39'0 0.0
2017-Jun-10 13:29N 35°29' E 139°39'0 0.0
2017-Jun-10 12:59N 35°29' E 139°39'0 0.0
2017-Jun-10 12:29N 35°29' E 139°39'0 0.0
2017-Jun-10 11:59N 35°29' E 139°39'0 0.0
2017-Jun-10 11:29N 35°29' E 139°39'0 0.0
2017-Jun-10 10:59N 35°29' E 139°39'0 0.0
2017-Jun-10 10:29N 35°29' E 139°39'0 0.0
2017-Jun-10 09:59N 35°29' E 139°39'0 0.0
2017-Jun-10 09:29N 35°29' E 139°39'0 0.0
2017-Jun-10 08:59N 35°29' E 139°39'  

Dump ship's entire track history